createdAt,value
2022-09-21T00:00:18.517Z,100817.63
2022-09-21T00:02:53.487Z,100817.94
2022-09-21T00:05:27.711Z,100821.69
2022-09-21T00:08:02.723Z,100824.56
2022-09-21T00:10:38.201Z,100820.37
2022-09-21T00:13:13.503Z,100830.72
2022-09-21T00:15:47.575Z,100822.03
2022-09-21T00:18:21.942Z,100824.78
2022-09-21T00:20:56.056Z,100831.25
2022-09-21T00:23:30.604Z,100828.72
2022-09-21T00:26:11.470Z,100827.31
2022-09-21T00:28:45.833Z,100835.66
2022-09-21T00:31:19.858Z,100825.19
2022-09-21T00:33:54.973Z,100825.97
2022-09-21T00:36:29.423Z,100833.97
2022-09-21T00:39:04.374Z,100827.63
2022-09-21T00:41:39.828Z,100827.84
2022-09-21T00:44:31.463Z,100831.47
2022-09-21T00:47:11.044Z,100837.63
2022-09-21T00:49:49.566Z,100827.06
2022-09-21T00:52:25.099Z,100822.47
2022-09-21T00:55:04.434Z,100826.19
2022-09-21T00:57:40.859Z,100827.28
2022-09-21T01:00:15.479Z,100834.75
2022-09-21T01:03:01.369Z,100835.62
2022-09-21T01:05:35.852Z,100837.50
2022-09-21T01:08:13.147Z,100830.34
2022-09-21T01:11:03.649Z,100835.53
2022-09-21T01:13:48.704Z,100832.44
2022-09-21T01:16:31.324Z,100839.16
2022-09-21T01:19:21.174Z,100836.97
2022-09-21T01:22:06.344Z,100830.16
2022-09-21T01:25:01.671Z,100833.44
2022-09-21T01:27:58.550Z,100836.06
2022-09-21T01:30:36.302Z,100833.87
2022-09-21T01:33:15.947Z,100829.16
2022-09-21T01:35:53.399Z,100833.56
2022-09-21T01:38:31.505Z,100833.13
2022-09-21T01:41:08.129Z,100829.72
2022-09-21T01:43:46.104Z,100829.59
2022-09-21T01:46:24.589Z,100840.66
2022-09-21T01:49:05.043Z,100840.78
2022-09-21T01:51:45.042Z,100839.25
2022-09-21T01:54:23.356Z,100843.22
2022-09-21T01:57:03.592Z,100843.22
2022-09-21T01:59:47.611Z,100844.09
2022-09-21T02:02:28.667Z,100835.41
2022-09-21T02:05:04.299Z,100843.87
2022-09-21T02:07:40.554Z,100841.91
2022-09-21T02:10:21.104Z,100845.72
2022-09-21T02:13:01.418Z,100853.84
2022-09-21T02:15:50.598Z,100855.06
2022-09-21T02:18:44.177Z,100859.78
2022-09-21T02:21:26.907Z,100861.00
2022-09-21T02:24:09.790Z,100863.59
2022-09-21T02:26:51.527Z,100864.28
2022-09-21T02:29:30.152Z,100857.97
2022-09-21T02:32:09.104Z,100865.47
2022-09-21T02:34:48.470Z,100864.31
2022-09-21T02:37:34.728Z,100863.94
2022-09-21T02:40:19.196Z,100872.50
2022-09-21T02:42:58.167Z,100873.41
2022-09-21T02:45:36.607Z,100871.19
2022-09-21T02:48:16.102Z,100872.75
2022-09-21T02:50:55.073Z,100870.47
2022-09-21T02:53:34.421Z,100871.78
2022-09-21T02:56:11.604Z,100874.19
2022-09-21T02:58:50.810Z,100877.59
2022-09-21T03:01:27.005Z,100876.78
2022-09-21T03:04:01.582Z,100874.56
2022-09-21T03:06:37.081Z,100883.34
2022-09-21T03:09:11.495Z,100879.41
2022-09-21T03:11:45.708Z,100881.13
2022-09-21T03:14:20.343Z,100888.41
2022-09-21T03:16:54.687Z,100884.53
2022-09-21T03:19:29.451Z,100883.25
2022-09-21T03:22:05.451Z,100885.56
2022-09-21T03:24:49.174Z,100896.88
2022-09-21T03:27:24.155Z,100881.31
2022-09-21T03:30:01.998Z,100887.44
2022-09-21T03:32:36.484Z,100893.66
2022-09-21T03:35:10.950Z,100900.97
2022-09-21T03:37:47.376Z,100886.50
2022-09-21T03:40:21.777Z,100891.56
2022-09-21T03:42:56.485Z,100891.63
2022-09-21T03:45:30.854Z,100896.44
2022-09-21T03:48:05.490Z,100901.59
2022-09-21T03:50:40.647Z,100895.75
2022-09-21T03:53:16.261Z,100897.78
2022-09-21T03:55:50.999Z,100900.81
2022-09-21T03:58:25.086Z,100902.22
2022-09-21T04:01:02.955Z,100904.78
2022-09-21T04:03:38.135Z,100905.72
2022-09-21T04:06:13.856Z,100905.13
2022-09-21T04:08:50.174Z,100897.31
2022-09-21T04:11:24.745Z,100896.88
2022-09-21T04:13:59.231Z,100903.50
2022-09-21T04:16:33.204Z,100904.69
2022-09-21T04:19:07.623Z,100909.91
2022-09-21T04:21:41.837Z,100919.44
2022-09-21T04:24:19.374Z,100919.00
2022-09-21T04:26:53.427Z,100915.78
2022-09-21T04:29:27.762Z,100915.03
2022-09-21T04:32:02.338Z,100931.00
2022-09-21T04:34:37.338Z,100932.03
2022-09-21T04:37:12.045Z,100926.38
2022-09-21T04:39:47.699Z,100933.16
2022-09-21T04:42:21.804Z,100937.94
2022-09-21T04:44:57.581Z,100944.81
2022-09-21T04:47:31.907Z,100942.06
2022-09-21T04:50:07.268Z,100946.59
2022-09-21T04:52:41.490Z,100947.53
2022-09-21T04:55:18.018Z,100943.34
2022-09-21T04:57:52.217Z,100947.56
2022-09-21T05:00:26.781Z,100946.63
2022-09-21T05:03:00.817Z,100961.38
2022-09-21T05:05:35.242Z,100951.97
2022-09-21T05:08:09.272Z,100961.53
2022-09-21T05:10:44.708Z,100962.37
2022-09-21T05:13:19.915Z,100958.69
2022-09-21T05:15:54.584Z,100961.00
2022-09-21T05:18:29.337Z,100968.13
2022-09-21T05:21:06.265Z,100964.53
2022-09-21T05:23:40.653Z,100968.28
2022-09-21T05:26:16.716Z,100972.75
2022-09-21T05:28:51.548Z,100968.97
2022-09-21T05:31:40.119Z,100974.88
2022-09-21T05:34:24.415Z,100983.47
2022-09-21T05:37:06.512Z,100973.88
2022-09-21T05:39:41.171Z,100981.75
2022-09-21T05:42:17.585Z,100983.97
2022-09-21T05:44:52.243Z,100983.44
2022-09-21T05:47:37.911Z,100981.66
2022-09-21T05:50:29.297Z,100979.78
2022-09-21T05:53:17.532Z,100976.31
2022-09-21T05:55:57.446Z,100981.56
2022-09-21T05:58:43.684Z,100982.50
2022-09-21T06:01:30.995Z,100990.84
2022-09-21T06:04:06.266Z,100985.91
2022-09-21T06:06:40.379Z,100984.44
2022-09-21T06:09:14.780Z,100984.44
2022-09-21T06:11:49.143Z,100991.75
2022-09-21T06:14:26.606Z,100994.50
2022-09-21T06:17:00.657Z,100996.06
2022-09-21T06:19:35.020Z,100999.37
2022-09-21T06:22:09.122Z,100995.53
2022-09-21T06:24:43.503Z,100995.88
2022-09-21T06:27:17.541Z,100996.75
2022-09-21T06:29:53.200Z,100992.47
2022-09-21T06:32:27.287Z,101000.38
2022-09-21T06:35:01.707Z,100996.16
2022-09-21T06:37:35.779Z,100997.62
2022-09-21T06:40:11.000Z,100995.31
2022-09-21T06:42:45.109Z,101009.75
2022-09-21T06:45:20.880Z,101009.41
2022-09-21T06:47:55.202Z,101015.75
2022-09-21T06:50:29.850Z,101021.59
2022-09-21T06:53:05.080Z,101021.59
2022-09-21T06:55:39.407Z,101024.91
2022-09-21T06:58:13.788Z,101019.63
2022-09-21T07:00:49.559Z,101027.00
2022-09-21T07:03:23.688Z,101022.91
2022-09-21T07:05:57.950Z,101020.50
2022-09-21T07:11:27.639Z,101022.91
2022-09-21T07:14:01.736Z,101022.91
2022-09-21T07:16:37.548Z,101030.81
2022-09-21T07:19:12.148Z,101032.63
2022-09-21T07:21:47.401Z,101025.59
2022-09-21T07:24:21.423Z,101028.12
2022-09-21T07:26:55.915Z,101024.16
2022-09-21T07:29:30.006Z,101025.19
2022-09-21T07:32:06.035Z,101016.87
2022-09-21T07:34:40.014Z,101028.88
2022-09-21T07:37:14.547Z,101031.62
2022-09-21T07:39:48.762Z,101024.81
2022-09-21T07:42:25.632Z,101041.72
2022-09-21T07:45:06.667Z,101031.78
2022-09-21T07:47:42.352Z,101031.16
2022-09-21T07:50:16.698Z,101031.00
2022-09-21T07:52:51.224Z,101038.00
2022-09-21T07:55:25.245Z,101033.44
2022-09-21T07:58:17.121Z,101031.91
2022-09-21T08:00:51.321Z,101022.78
2022-09-21T08:03:27.078Z,101022.81
2022-09-21T08:06:01.253Z,101029.09
2022-09-21T08:08:35.581Z,101026.03
2022-09-21T08:11:11.901Z,101034.25
2022-09-21T08:13:46.420Z,101032.72
2022-09-21T08:16:20.590Z,101033.75
2022-09-21T08:18:56.508Z,101026.31
2022-09-21T08:21:30.716Z,101040.72
2022-09-21T08:24:05.203Z,101033.84
2022-09-21T08:26:39.763Z,101043.59
2022-09-21T08:29:14.690Z,101035.56
2022-09-21T08:31:48.826Z,101035.44
2022-09-21T08:34:26.452Z,101039.00
2022-09-21T08:37:01.463Z,101036.41
2022-09-21T08:39:35.925Z,101038.53
2022-09-21T08:42:32.803Z,101028.06
2022-09-21T08:45:13.381Z,101041.25
2022-09-21T08:47:51.945Z,101032.81
2022-09-21T08:50:38.769Z,101035.25
2022-09-21T08:53:16.288Z,101037.09
2022-09-21T08:55:50.676Z,101032.44
2022-09-21T08:58:26.111Z,101033.81
2022-09-21T09:01:21.668Z,101025.78
2022-09-21T09:04:10.588Z,101025.94
2022-09-21T09:06:58.026Z,101021.75
2022-09-21T09:10:04.597Z,101019.47
2022-09-21T09:12:59.013Z,101026.44
2022-09-21T09:16:00.145Z,101019.13
2022-09-21T09:18:44.838Z,101012.28
2022-09-21T09:21:30.316Z,101019.66
2022-09-21T09:24:12.732Z,101023.97
2022-09-21T09:26:52.648Z,101019.53
2022-09-21T09:29:32.883Z,101014.75
2022-09-21T09:32:12.107Z,101012.78
2022-09-21T09:34:54.754Z,101023.75
2022-09-21T09:37:34.639Z,101018.62
2022-09-21T09:40:14.299Z,101018.59
2022-09-21T09:43:01.325Z,101013.09
2022-09-21T09:45:49.264Z,101013.19
2022-09-21T09:48:36.510Z,101011.34
2022-09-21T09:51:13.819Z,101009.94
2022-09-21T09:53:47.924Z,101009.53
2022-09-21T09:56:23.927Z,100997.78
2022-09-21T09:59:03.516Z,101007.53
2022-09-21T10:01:41.957Z,101009.38
2022-09-21T10:04:18.696Z,101007.56
2022-09-21T10:06:52.895Z,100995.41
2022-09-21T10:09:29.055Z,100998.84
2022-09-21T10:12:19.903Z,100989.19
2022-09-21T10:14:56.072Z,100999.31
2022-09-21T10:17:30.126Z,100988.38
2022-09-21T10:20:08.347Z,100988.12
2022-09-21T10:22:43.962Z,100989.66
2022-09-21T10:25:20.419Z,100991.09
2022-09-21T10:27:57.036Z,100986.69
2022-09-21T10:30:35.597Z,100985.91
2022-09-21T10:33:21.301Z,100981.63
2022-09-21T10:35:57.016Z,100973.50
2022-09-21T10:38:31.081Z,100980.47
2022-09-21T10:41:05.644Z,100980.00
2022-09-21T10:43:44.610Z,100985.63
2022-09-21T10:46:19.346Z,100977.59
2022-09-21T10:48:53.576Z,100972.25
2022-09-21T10:51:31.736Z,100979.34
2022-09-21T10:54:11.347Z,100971.41
2022-09-21T10:56:54.190Z,100978.28
2022-09-21T10:59:32.015Z,100972.41
2022-09-21T11:02:29.688Z,100980.84
2022-09-21T11:05:11.165Z,100985.94
2022-09-21T11:07:53.432Z,100979.59
2022-09-21T11:10:35.056Z,100975.75
2022-09-21T11:13:26.394Z,100973.47
2022-09-21T11:16:11.573Z,100970.41
2022-09-21T11:18:55.555Z,100967.28
2022-09-21T11:21:36.826Z,100969.63
2022-09-21T11:24:25.048Z,100970.31
2022-09-21T11:27:05.134Z,100966.91
2022-09-21T11:29:48.095Z,100970.97
2022-09-21T11:32:44.369Z,100975.66
2022-09-21T11:35:54.135Z,100962.41
2022-09-21T11:38:43.263Z,100958.25
2022-09-21T11:41:36.903Z,100956.75
2022-09-21T11:44:34.973Z,100954.84
2022-09-21T11:47:23.923Z,100949.66
2022-09-21T11:50:33.659Z,100948.56
2022-09-21T11:53:59.920Z,100948.41
2022-09-21T11:56:43.811Z,100946.38
2022-09-21T11:59:34.452Z,100947.69
2022-09-21T12:02:31.189Z,100958.25
2022-09-21T12:05:18.000Z,100953.16
2022-09-21T12:08:21.787Z,100951.56
2022-09-21T12:11:03.551Z,100942.84
2022-09-21T12:13:44.127Z,100940.00
2022-09-21T12:16:24.635Z,100940.12
2022-09-21T12:19:06.124Z,100941.91
2022-09-21T12:21:48.243Z,100933.75
2022-09-21T12:24:31.794Z,100935.00
2022-09-21T12:27:15.398Z,100915.97
2022-09-21T12:29:53.634Z,100929.53
2022-09-21T12:32:40.728Z,100931.03
2022-09-21T12:35:19.088Z,100935.84
2022-09-21T12:38:00.470Z,100947.22
2022-09-21T12:40:40.536Z,100939.50
2022-09-21T12:43:33.805Z,100937.88
2022-09-21T12:46:13.959Z,100930.34
2022-09-21T12:48:49.177Z,100914.81
2022-09-21T12:51:29.726Z,100919.72
2022-09-21T12:54:15.458Z,100911.56
2022-09-21T12:56:57.005Z,100921.97
2022-09-21T12:59:38.689Z,100914.97
2022-09-21T13:02:22.601Z,100900.47
2022-09-21T13:05:06.160Z,100909.66
2022-09-21T13:08:01.751Z,100909.53
2022-09-21T13:10:54.919Z,100898.44
2022-09-21T13:13:34.018Z,100896.72
2022-09-21T13:16:22.695Z,100897.00
2022-09-21T13:19:00.140Z,100896.53
2022-09-21T13:21:35.055Z,100893.47
2022-09-21T13:24:27.237Z,100893.31
2022-09-21T13:27:07.658Z,100884.13
2022-09-21T13:29:42.854Z,100888.37
2022-09-21T13:32:25.454Z,100886.75
2022-09-21T13:35:37.782Z,100890.19
2022-09-21T13:38:28.755Z,100891.25
2022-09-21T13:41:03.983Z,100880.19
2022-09-21T13:43:50.696Z,100877.22
2022-09-21T13:46:48.289Z,100877.03
2022-09-21T13:49:32.228Z,100880.72
2022-09-21T13:52:09.248Z,100891.13
2022-09-21T13:54:51.702Z,100883.47
2022-09-21T13:57:33.365Z,100880.69
2022-09-21T14:00:36.156Z,100873.78
2022-09-21T14:03:23.843Z,100873.63
2022-09-21T14:06:06.720Z,100877.59
2022-09-21T14:08:52.724Z,100882.31
2022-09-21T14:11:33.632Z,100879.97
2022-09-21T14:14:18.369Z,100885.47
2022-09-21T14:16:59.072Z,100883.16
2022-09-21T14:20:09.530Z,100882.34
2022-09-21T14:22:44.870Z,100875.31
2022-09-21T14:25:30.567Z,100881.22
2022-09-21T14:28:13.197Z,100877.69
2022-09-21T14:30:55.490Z,100889.34
2022-09-21T14:33:42.488Z,100887.00
2022-09-21T14:36:22.332Z,100881.31
2022-09-21T14:39:00.609Z,100879.38
2022-09-21T14:41:41.556Z,100886.31
2022-09-21T14:44:21.479Z,100890.06
2022-09-21T14:47:10.128Z,100884.22
2022-09-21T14:50:05.680Z,100891.84
2022-09-21T14:52:53.151Z,100896.72
2022-09-21T14:55:34.634Z,100894.91
2022-09-21T14:58:25.031Z,100899.56
2022-09-21T15:01:22.017Z,100899.22
2022-09-21T15:04:16.771Z,100892.47
2022-09-21T15:07:21.831Z,100892.22
2022-09-21T15:10:43.507Z,100894.09
2022-09-21T15:13:53.576Z,100888.97
2022-09-21T15:16:38.623Z,100889.03
2022-09-21T15:19:22.813Z,100889.41
2022-09-21T15:22:16.740Z,100890.50
2022-09-21T15:24:52.448Z,100882.47
2022-09-21T15:27:33.532Z,100893.88
2022-09-21T15:30:19.839Z,100882.59
2022-09-21T15:32:56.843Z,100885.94
2022-09-21T15:35:33.322Z,100880.78
2022-09-21T15:38:30.206Z,100887.41
2022-09-21T15:41:08.443Z,100896.41
2022-09-21T15:43:51.516Z,100881.88
2022-09-21T15:46:25.692Z,100889.72
2022-09-21T15:49:01.801Z,100888.37
2022-09-21T15:51:39.855Z,100895.06
2022-09-21T15:54:32.311Z,100898.31
2022-09-21T15:57:24.573Z,100901.66
2022-09-21T15:59:58.998Z,100903.00
2022-09-21T16:02:37.349Z,100901.53
2022-09-21T16:05:16.002Z,100894.56
2022-09-21T16:07:51.791Z,100900.97
2022-09-21T16:10:40.623Z,100907.56
2022-09-21T16:13:38.604Z,100914.25
2022-09-21T16:16:15.268Z,100908.25
2022-09-21T16:18:51.794Z,100908.25
2022-09-21T16:21:28.769Z,100906.41
2022-09-21T16:24:12.580Z,100913.56
2022-09-21T16:26:59.455Z,100908.69
2022-09-21T16:29:40.183Z,100926.28
2022-09-21T16:32:28.977Z,100919.34
2022-09-21T16:35:27.985Z,100916.56
2022-09-21T16:38:02.328Z,100911.94
2022-09-21T16:40:36.668Z,100920.12
2022-09-21T16:43:13.077Z,100919.75
2022-09-21T16:45:47.552Z,100926.53
2022-09-21T16:48:22.033Z,100931.13
2022-09-21T16:50:56.079Z,100929.38
2022-09-21T16:53:31.012Z,100925.41
2022-09-21T16:56:16.435Z,100926.38
2022-09-21T16:58:52.249Z,100935.97
2022-09-21T17:01:27.368Z,100934.16
2022-09-21T17:04:03.122Z,100934.78
2022-09-21T17:06:40.101Z,100937.31
2022-09-21T17:09:28.363Z,100940.53
2022-09-21T17:12:06.416Z,100930.00
2022-09-21T17:14:46.617Z,100927.84
2022-09-21T17:17:23.609Z,100933.84
2022-09-21T17:19:58.055Z,100957.09
2022-09-21T17:22:32.119Z,100953.06
2022-09-21T17:25:07.822Z,100958.13
2022-09-21T17:27:45.190Z,100968.00
2022-09-21T17:30:21.480Z,100965.09
2022-09-21T17:32:56.049Z,100968.81
2022-09-21T17:35:38.912Z,100962.56
2022-09-21T17:38:14.646Z,100979.13
2022-09-21T17:40:51.229Z,100983.59
2022-09-21T17:43:37.467Z,100987.56
2022-09-21T17:46:19.886Z,100997.09
2022-09-21T17:48:54.659Z,100995.72
2022-09-21T17:51:47.176Z,101001.41
2022-09-21T17:54:21.777Z,101005.69
2022-09-21T17:57:02.199Z,101004.00
2022-09-21T17:59:38.131Z,101001.69
2022-09-21T18:02:22.995Z,101009.38
2022-09-21T18:05:03.536Z,101011.03
2022-09-21T18:07:38.058Z,101003.22
2022-09-21T18:10:15.701Z,101014.28
2022-09-21T18:13:06.950Z,101016.25
2022-09-21T18:15:51.676Z,101019.63
2022-09-21T18:18:39.543Z,101008.06
2022-09-21T18:21:19.741Z,101028.31
2022-09-21T18:24:14.847Z,101024.47
2022-09-21T18:26:53.178Z,101027.69
2022-09-21T18:29:46.550Z,101020.16
2022-09-21T18:32:43.165Z,101017.53
2022-09-21T18:35:37.951Z,101022.75
2022-09-21T18:38:28.455Z,101025.56
2022-09-21T18:41:16.305Z,101022.41
2022-09-21T18:44:05.435Z,101024.03
2022-09-21T18:46:51.180Z,101023.06
2022-09-21T18:49:41.879Z,101038.19
2022-09-21T18:52:26.287Z,101032.38
2022-09-21T18:55:01.028Z,101038.34
2022-09-21T18:57:36.990Z,101030.28
2022-09-21T19:00:15.710Z,101033.47
2022-09-21T19:03:12.811Z,101037.25
2022-09-21T19:05:54.436Z,101034.84
2022-09-21T19:08:40.491Z,101045.00
2022-09-21T19:11:22.037Z,101035.56
2022-09-21T19:14:05.825Z,101037.03
2022-09-21T19:16:52.214Z,101035.16
2022-09-21T19:19:35.576Z,101036.69
2022-09-21T19:22:16.598Z,101033.47
2022-09-21T19:25:00.749Z,101034.84
2022-09-21T19:27:39.578Z,101039.53
2022-09-21T19:30:16.695Z,101042.50
2022-09-21T19:32:53.171Z,101035.94
2022-09-21T19:35:29.038Z,101038.50
2022-09-21T19:38:04.969Z,101038.13
2022-09-21T19:40:40.748Z,101031.28
2022-09-21T19:43:24.639Z,101028.16
2022-09-21T19:46:14.591Z,101024.28
2022-09-21T19:48:50.961Z,101019.38
2022-09-21T19:51:33.859Z,101019.91
2022-09-21T19:54:32.024Z,101018.88
2022-09-21T19:57:31.697Z,101025.25
2022-09-21T20:00:08.735Z,101015.72
2022-09-21T20:02:50.004Z,101008.53
2022-09-21T20:05:29.196Z,101015.75
2022-09-21T20:08:10.315Z,101025.00
2022-09-21T20:10:57.853Z,101024.53
2022-09-21T20:14:02.780Z,101026.56
2022-09-21T20:16:47.479Z,101028.50
2022-09-21T20:19:36.586Z,101030.50
2022-09-21T20:22:13.594Z,101033.91
2022-09-21T20:24:56.842Z,101028.12
2022-09-21T20:27:35.709Z,101031.28
2022-09-21T20:30:13.642Z,101017.22
2022-09-21T20:32:56.970Z,101026.25
2022-09-21T20:35:32.083Z,101020.16
2022-09-21T20:40:24.939Z,101017.44
2022-09-21T20:43:01.242Z,101017.44
2022-09-21T20:45:35.756Z,101032.75
2022-09-21T20:48:16.384Z,101037.69
2022-09-21T20:50:51.578Z,101035.84
2022-09-21T20:53:25.982Z,101036.72
2022-09-21T20:56:02.156Z,101027.25
2022-09-21T20:58:36.593Z,101031.38
2022-09-21T21:01:11.167Z,101030.97
2022-09-21T21:03:45.681Z,101026.97
2022-09-21T21:06:19.974Z,101036.03
2022-09-21T21:08:54.382Z,101038.44
2022-09-21T21:11:29.760Z,101030.09
2022-09-21T21:14:04.935Z,101033.16
2022-09-21T21:16:39.033Z,101049.56
2022-09-21T21:19:14.070Z,101047.13
2022-09-21T21:21:48.340Z,101055.59
2022-09-21T21:24:40.292Z,101042.28
2022-09-21T21:27:17.473Z,101035.78
2022-09-21T21:29:52.975Z,101041.06
2022-09-21T21:32:28.113Z,101037.22
2022-09-21T21:35:03.023Z,101039.63
2022-09-21T21:37:37.262Z,101038.84
2022-09-21T21:40:12.080Z,101044.53
2022-09-21T21:42:48.123Z,101042.28
2022-09-21T21:45:22.619Z,101040.06
2022-09-21T21:47:57.039Z,101038.19
2022-09-21T21:50:31.843Z,101041.84
2022-09-21T21:53:05.961Z,101046.22
2022-09-21T21:55:40.284Z,101039.97
2022-09-21T21:58:15.776Z,101043.28
2022-09-21T22:00:50.159Z,101040.19
2022-09-21T22:03:24.535Z,101029.06
2022-09-21T22:05:58.542Z,101032.25
2022-09-21T22:08:33.953Z,101045.38
2022-09-21T22:11:08.896Z,101034.78
2022-09-21T22:13:45.665Z,101033.03
2022-09-21T22:16:22.162Z,101031.16
2022-09-21T22:18:57.312Z,101023.13
2022-09-21T22:21:33.752Z,101032.94
2022-09-21T22:24:09.123Z,101038.62
2022-09-21T22:26:45.138Z,101030.50
2022-09-21T22:29:20.746Z,101023.56
2022-09-21T22:31:55.603Z,101023.56
2022-09-21T22:34:30.646Z,101021.50
2022-09-21T22:37:04.659Z,101018.75
2022-09-21T22:39:38.973Z,101022.03
2022-09-21T22:42:12.982Z,101015.00
2022-09-21T22:44:48.729Z,101015.88
2022-09-21T22:47:22.875Z,101009.84
2022-09-21T22:49:57.783Z,101007.28
2022-09-21T22:52:31.903Z,101008.84
2022-09-21T22:55:06.957Z,101000.16
2022-09-21T22:57:41.890Z,101008.06
2022-09-21T23:00:18.114Z,101002.09
2022-09-21T23:02:55.571Z,101003.88
2022-09-21T23:05:30.013Z,100989.03
2022-09-21T23:08:04.063Z,100999.16
2022-09-21T23:10:38.389Z,100994.44
2022-09-21T23:13:13.602Z,100997.62
2022-09-21T23:15:49.268Z,100985.00
2022-09-21T23:18:23.342Z,100988.50
2022-09-21T23:20:59.155Z,100982.91
2022-09-21T23:23:34.120Z,100988.72
2022-09-21T23:26:10.064Z,100993.84
2022-09-21T23:28:45.958Z,100996.13
2022-09-21T23:31:21.939Z,100992.13
2022-09-21T23:33:57.335Z,100992.13
2022-09-21T23:36:32.898Z,100992.50
2022-09-21T23:39:08.152Z,100989.22
2022-09-21T23:41:42.582Z,100986.81
2022-09-21T23:44:16.615Z,100999.75
2022-09-21T23:46:52.448Z,100995.50
2022-09-21T23:49:26.487Z,100996.66
2022-09-21T23:52:00.820Z,100991.62
2022-09-21T23:54:34.822Z,100988.66
2022-09-21T23:57:09.147Z,101000.81
2022-09-21T23:59:43.221Z,100987.34
